createdAt,value
2019-02-03T00:01:27.132Z,12.63
2019-02-03T00:04:02.059Z,12.82
2019-02-03T00:06:30.780Z,13.05
2019-02-03T00:08:59.988Z,11.90
2019-02-03T00:11:41.628Z,12.90
2019-02-03T00:14:10.374Z,12.63
2019-02-03T00:16:39.125Z,13.08
2019-02-03T00:19:15.670Z,12.75
2019-02-03T00:21:44.539Z,12.10
2019-02-03T00:24:13.598Z,13.65
2019-02-03T00:26:48.853Z,13.45
2019-02-03T00:29:17.961Z,13.65
2019-02-03T00:31:47.962Z,13.55
2019-02-03T00:34:23.419Z,13.38
2019-02-03T00:36:52.202Z,13.80
2019-02-03T00:39:21.014Z,13.60
2019-02-03T00:41:56.713Z,13.53
2019-02-03T00:44:25.817Z,13.80
2019-02-03T00:46:54.598Z,14.13
2019-02-03T00:49:30.359Z,13.20
2019-02-03T00:51:59.070Z,13.15
2019-02-03T00:54:41.208Z,13.30
2019-02-03T00:57:16.289Z,13.20
2019-02-03T00:59:51.205Z,12.65
2019-02-03T01:02:20.137Z,12.63
2019-02-03T01:04:49.416Z,12.78
2019-02-03T01:07:27.551Z,13.90
2019-02-03T01:09:55.447Z,13.32
2019-02-03T01:12:36.839Z,13.58
2019-02-03T01:15:07.245Z,12.93
2019-02-03T01:17:36.264Z,13.35
2019-02-03T01:20:14.092Z,12.68
2019-02-03T01:22:44.197Z,13.68
2019-02-03T01:25:14.752Z,13.83
2019-02-03T01:27:50.743Z,13.55
2019-02-03T01:30:21.242Z,13.30
2019-02-03T01:43:33.411Z,14.03
2019-02-03T01:46:02.299Z,14.25
2019-02-03T01:48:31.023Z,14.50
2019-02-03T01:51:06.922Z,14.78
2019-02-03T01:53:42.487Z,14.87
2019-02-03T01:56:25.144Z,15.48
2019-02-03T01:58:53.888Z,14.68
2019-02-03T02:01:23.135Z,15.90
2019-02-03T02:03:58.421Z,16.52
2019-02-03T02:06:27.619Z,17.05
2019-02-03T02:08:56.358Z,16.60
2019-02-03T02:11:31.713Z,16.70
2019-02-03T02:14:06.653Z,17.90
2019-02-03T02:16:42.229Z,17.17
2019-02-03T02:19:10.956Z,17.60
2019-02-03T02:21:39.654Z,18.07
2019-02-03T02:24:15.244Z,19.23
2019-02-03T02:26:43.978Z,18.20
2019-02-03T02:29:13.079Z,19.00
2019-02-03T02:31:49.022Z,19.47
2019-02-03T02:34:17.855Z,19.50
2019-02-03T02:36:46.604Z,19.98
2019-02-03T02:39:22.883Z,19.65
2019-02-03T02:41:51.898Z,20.32
2019-02-03T02:44:20.638Z,20.80
2019-02-03T02:46:55.660Z,20.12
2019-02-03T02:49:24.460Z,20.88
2019-02-03T02:51:53.563Z,20.02
2019-02-03T02:54:29.789Z,20.02
2019-02-03T02:57:05.714Z,19.73
2019-02-03T02:59:41.287Z,20.27
2019-02-03T03:02:10.145Z,20.45
2019-02-03T03:04:39.366Z,20.10
2019-02-03T03:07:15.384Z,20.30
2019-02-03T03:09:44.114Z,21.10
2019-02-03T03:12:12.867Z,20.12
2019-02-03T03:14:47.839Z,20.30
2019-02-03T03:17:22.688Z,20.68
2019-02-03T03:19:58.382Z,19.70
2019-02-03T03:22:27.162Z,19.27
2019-02-03T03:24:55.917Z,19.75
2019-02-03T03:27:32.341Z,19.60
2019-02-03T03:30:01.237Z,20.15
2019-02-03T03:32:30.388Z,19.98
2019-02-03T03:35:05.529Z,19.90
2019-02-03T03:37:34.370Z,20.55
2019-02-03T03:40:05.162Z,20.70
2019-02-03T03:42:41.512Z,19.87
2019-02-03T03:45:10.924Z,20.65
2019-02-03T03:47:39.672Z,20.17
2019-02-03T03:50:16.368Z,20.20
2019-02-03T03:52:45.199Z,19.90
2019-02-03T03:55:27.096Z,19.73
2019-02-03T03:58:02.324Z,19.62
2019-02-03T04:00:38.533Z,19.17
2019-02-03T04:03:07.516Z,19.95
2019-02-03T04:05:36.375Z,20.03
2019-02-03T04:08:11.683Z,20.47
2019-02-03T04:14:31.751Z,20.47
2019-02-03T04:17:00.599Z,20.43
2019-02-03T04:19:43.122Z,20.90
2019-02-03T04:22:12.165Z,20.40
2019-02-03T04:24:40.901Z,20.23
2019-02-03T04:27:16.171Z,20.70
2019-02-03T04:29:44.960Z,21.17
2019-02-03T04:32:13.904Z,20.95
2019-02-03T04:34:49.917Z,21.00
2019-02-03T04:37:18.921Z,20.00
2019-02-03T04:39:47.710Z,20.43
2019-02-03T04:42:23.597Z,20.47
2019-02-03T04:44:53.755Z,20.00
2019-02-03T04:47:22.814Z,19.48
2019-02-03T04:49:58.177Z,20.10
2019-02-03T04:52:26.958Z,19.35
2019-02-03T04:54:55.941Z,19.85
2019-02-03T04:57:31.472Z,19.98
2019-02-03T05:00:07.136Z,19.75
2019-02-03T05:02:42.011Z,20.10
2019-02-03T05:05:10.995Z,19.25
2019-02-03T05:07:40.036Z,19.62
2019-02-03T05:10:17.401Z,19.10
2019-02-03T05:12:46.460Z,19.20
2019-02-03T05:15:17.474Z,19.92
2019-02-03T05:17:53.129Z,19.05
2019-02-03T05:20:28.973Z,18.75
2019-02-03T05:23:04.613Z,19.90
2019-02-03T05:25:33.632Z,18.82
2019-02-03T05:28:02.451Z,18.98
2019-02-03T05:30:40.323Z,18.48
2019-02-03T05:33:09.302Z,17.92
2019-02-03T05:35:38.134Z,18.80
2019-02-03T05:38:13.815Z,19.05
2019-02-03T05:40:42.521Z,19.10
2019-02-03T05:43:11.257Z,18.75
2019-02-03T05:45:47.000Z,19.27
2019-02-03T05:48:17.216Z,19.10
2019-02-03T05:50:46.025Z,18.42
2019-02-03T05:53:21.374Z,18.90
2019-02-03T05:55:56.994Z,18.17
2019-02-03T05:58:38.366Z,19.10
2019-02-03T06:01:07.333Z,19.25
2019-02-03T06:03:36.357Z,19.00
2019-02-03T06:06:12.018Z,19.25
2019-02-03T06:08:40.877Z,18.85
2019-02-03T06:11:12.616Z,18.62
2019-02-03T06:13:47.689Z,18.48
2019-02-03T06:16:16.680Z,17.55
2019-02-03T06:18:45.406Z,18.25
2019-02-03T06:21:27.637Z,18.27
2019-02-03T06:23:56.581Z,18.92
2019-02-03T06:26:25.559Z,19.10
2019-02-03T06:29:01.199Z,18.23
2019-02-03T06:31:32.062Z,19.42
2019-02-03T06:44:46.542Z,19.03
2019-02-03T06:47:22.942Z,18.15
2019-02-03T06:49:58.768Z,18.62
2019-02-03T06:52:28.934Z,18.37
2019-02-03T06:54:57.724Z,19.00
2019-02-03T06:57:33.147Z,20.10
2019-02-03T07:00:07.975Z,19.77
2019-02-03T07:02:44.099Z,19.45
2019-02-03T07:05:13.315Z,19.07
2019-02-03T07:07:42.038Z,19.50
2019-02-03T07:10:17.782Z,21.23
2019-02-03T07:12:46.857Z,20.32
2019-02-03T07:15:15.879Z,20.10
2019-02-03T07:17:51.153Z,19.77
2019-02-03T07:20:20.181Z,20.57
2019-02-03T07:23:02.920Z,20.23
2019-02-03T07:25:31.826Z,20.27
2019-02-03T07:28:00.898Z,20.77
2019-02-03T07:30:36.465Z,20.45
2019-02-03T07:33:05.622Z,20.33
2019-02-03T07:35:34.357Z,20.35
2019-02-03T07:38:10.707Z,19.77
2019-02-03T07:40:39.989Z,20.92
2019-02-03T07:43:09.506Z,20.43
2019-02-03T07:45:44.792Z,20.35
2019-02-03T07:48:13.789Z,21.60
2019-02-03T07:50:43.545Z,20.70
2019-02-03T07:53:19.060Z,21.20
2019-02-03T07:55:48.007Z,20.37
2019-02-03T07:58:31.011Z,20.40
2019-02-03T08:01:06.867Z,21.13
2019-02-03T08:03:42.543Z,20.23
2019-02-03T08:06:11.288Z,20.97
2019-02-03T08:08:40.090Z,20.77
2019-02-03T08:11:15.414Z,20.37
2019-02-03T08:13:44.237Z,20.82
2019-02-03T08:16:13.124Z,20.60
2019-02-03T08:18:48.957Z,20.37
2019-02-03T08:21:17.705Z,19.92
2019-02-03T08:24:00.228Z,20.85
2019-02-03T08:26:28.968Z,20.10
2019-02-03T08:28:57.895Z,20.60
2019-02-03T08:31:41.895Z,20.40
2019-02-03T08:34:10.636Z,20.20
2019-02-03T08:36:39.880Z,20.68
2019-02-03T08:39:15.646Z,19.53
2019-02-03T08:41:44.419Z,19.10
2019-02-03T08:44:13.399Z,19.82
2019-02-03T08:46:48.493Z,21.17
2019-02-03T08:49:17.459Z,20.27
2019-02-03T08:51:47.153Z,19.57
2019-02-03T08:54:22.333Z,20.60
2019-02-03T08:56:51.366Z,19.48
2019-02-03T08:59:39.866Z,19.75
2019-02-03T09:20:56.163Z,18.25
2019-02-03T09:23:24.956Z,17.87
2019-02-03T09:26:08.687Z,17.70
2019-02-03T09:28:37.625Z,18.42
2019-02-03T09:31:06.352Z,17.17
2019-02-03T09:33:41.702Z,17.50
2019-02-03T09:36:10.982Z,16.70
2019-02-03T09:38:40.458Z,16.77
2019-02-03T09:41:15.817Z,16.65
2019-02-03T09:43:44.909Z,17.20
2019-02-03T09:46:14.107Z,17.82
2019-02-03T09:48:49.461Z,18.00
2019-02-03T09:51:19.783Z,17.07
2019-02-03T09:53:48.783Z,16.82
2019-02-03T09:56:24.136Z,17.50
2019-02-03T09:58:59.590Z,17.30
2019-02-03T10:01:42.497Z,16.85
2019-02-03T10:04:11.385Z,16.48
2019-02-03T10:06:42.299Z,17.70
2019-02-03T10:09:18.444Z,15.90
2019-02-03T10:11:47.659Z,17.35
2019-02-03T10:14:16.747Z,17.52
2019-02-03T10:16:51.851Z,16.10
2019-02-03T10:19:20.960Z,16.90
2019-02-03T10:21:49.980Z,16.62
2019-02-03T10:24:25.345Z,16.73
2019-02-03T10:27:01.689Z,16.67
2019-02-03T10:29:37.879Z,16.93
2019-02-03T10:32:06.850Z,16.02
2019-02-03T10:34:36.230Z,16.93
2019-02-03T10:37:12.028Z,17.27
2019-02-03T10:39:40.988Z,16.82
2019-02-03T10:42:10.349Z,16.75
2019-02-03T10:44:46.668Z,16.65
2019-02-03T10:47:16.066Z,17.15
2019-02-03T10:49:46.777Z,16.07
2019-02-03T10:52:22.690Z,16.55
2019-02-03T10:54:51.512Z,16.50
2019-02-03T10:57:20.445Z,16.02
2019-02-03T10:59:56.097Z,16.52
2019-02-03T11:02:31.947Z,16.95
2019-02-03T11:05:07.198Z,16.65
2019-02-03T11:17:29.552Z,16.73
2019-02-03T11:20:06.432Z,15.65
2019-02-03T11:22:42.002Z,17.20
2019-02-03T11:28:27.186Z,15.68
2019-02-03T11:30:56.448Z,15.95
2019-02-03T11:33:25.307Z,16.80
2019-02-03T11:36:00.738Z,16.03
2019-02-03T11:38:29.842Z,16.37
2019-02-03T11:40:59.381Z,16.52
2019-02-03T11:43:34.755Z,16.45
2019-02-03T11:46:03.480Z,16.37
2019-02-03T11:48:32.765Z,16.40
2019-02-03T11:51:08.403Z,15.98
2019-02-03T11:53:37.312Z,15.98
2019-02-03T11:56:06.184Z,15.60
2019-02-03T11:58:41.868Z,15.98
2019-02-03T12:01:11.101Z,16.17
2019-02-03T12:03:40.067Z,16.42
2019-02-03T12:06:15.777Z,15.98
2019-02-03T12:08:44.994Z,15.65
2019-02-03T12:11:13.750Z,16.70
2019-02-03T12:13:49.373Z,15.35
2019-02-03T12:16:18.215Z,15.70
2019-02-03T12:18:46.930Z,16.42
2019-02-03T12:21:22.634Z,15.25
2019-02-03T12:23:53.461Z,14.98
2019-02-03T12:26:23.163Z,15.80
2019-02-03T12:28:59.159Z,15.67
2019-02-03T12:31:34.987Z,16.02
2019-02-03T12:34:10.911Z,16.20
2019-02-03T12:36:40.218Z,16.57
2019-02-03T12:39:09.964Z,14.83
2019-02-03T12:41:48.004Z,15.05
2019-02-03T12:44:16.240Z,15.80
2019-02-03T12:46:45.021Z,15.35
2019-02-03T12:49:20.289Z,14.78
2019-02-03T12:51:49.254Z,14.65
2019-02-03T12:54:18.627Z,14.87
2019-02-03T12:56:56.771Z,13.83
2019-02-03T12:59:26.045Z,14.40
2019-02-03T13:01:55.763Z,14.30
2019-02-03T13:04:31.413Z,15.15
2019-02-03T13:07:00.490Z,14.80
2019-02-03T13:09:29.548Z,14.07
2019-02-03T13:12:05.288Z,14.33
2019-02-03T13:14:34.022Z,14.87
2019-02-03T13:17:02.793Z,14.15
2019-02-03T13:19:38.463Z,14.28
2019-02-03T13:22:07.535Z,13.85
2019-02-03T13:24:36.276Z,14.00
2019-02-03T13:27:12.693Z,14.65
2019-02-03T13:29:48.698Z,13.90
2019-02-03T13:32:30.552Z,13.90
2019-02-03T13:34:59.315Z,13.05
2019-02-03T13:37:28.117Z,13.50
2019-02-03T13:40:04.243Z,13.80
2019-02-03T13:42:37.501Z,13.70
2019-02-03T13:45:04.016Z,13.58
2019-02-03T13:47:39.799Z,13.72
2019-02-03T13:50:10.804Z,14.00
2019-02-03T13:52:39.596Z,13.75
2019-02-03T13:55:15.521Z,12.95
2019-02-03T13:57:44.310Z,13.13
2019-02-03T14:00:18.717Z,13.50
2019-02-03T14:02:54.328Z,13.13
2019-02-03T14:05:23.350Z,13.20
2019-02-03T14:07:52.160Z,12.65
2019-02-03T14:10:33.523Z,12.93
2019-02-03T14:13:02.534Z,13.00
2019-02-03T14:15:31.855Z,12.65
2019-02-03T14:18:08.164Z,12.60
2019-02-03T14:20:36.923Z,12.68
2019-02-03T14:23:06.019Z,12.37
2019-02-03T14:25:42.139Z,11.88
2019-02-03T14:28:10.869Z,12.05
2019-02-03T14:30:54.303Z,11.83
2019-02-03T14:33:29.594Z,12.05
2019-02-03T14:36:05.686Z,12.37
2019-02-03T14:38:34.407Z,11.83
2019-02-03T14:41:03.181Z,10.90
2019-02-03T14:43:38.786Z,11.53
2019-02-03T14:46:07.678Z,10.85
2019-02-03T14:48:36.421Z,11.30
2019-02-03T14:51:11.315Z,11.45
2019-02-03T14:53:40.019Z,11.38
2019-02-03T14:56:09.148Z,10.60
2019-02-03T14:58:44.145Z,11.70
2019-02-03T15:01:12.954Z,11.03
2019-02-03T15:03:41.697Z,10.60
2019-02-03T15:06:17.349Z,11.07
2019-02-03T15:08:46.601Z,11.50
2019-02-03T15:11:15.444Z,10.82
2019-02-03T15:13:51.125Z,10.93
2019-02-03T15:16:19.836Z,10.53
2019-02-03T15:18:48.784Z,10.35
2019-02-03T15:21:24.758Z,11.25
2019-02-03T15:24:15.881Z,10.32
2019-02-03T15:26:51.231Z,10.40
2019-02-03T15:29:20.825Z,10.40
2019-02-03T15:32:02.864Z,10.08
2019-02-03T15:34:38.406Z,10.75
2019-02-03T15:37:13.420Z,9.98
2019-02-03T15:39:42.192Z,10.78
2019-02-03T15:42:11.063Z,10.78
2019-02-03T15:44:46.869Z,10.25
2019-02-03T15:47:16.195Z,10.55
2019-02-03T15:49:44.997Z,10.43
2019-02-03T15:52:20.620Z,10.50
2019-02-03T15:54:49.692Z,10.28
2019-02-03T15:57:18.507Z,10.88
2019-02-03T15:59:54.353Z,10.85
2019-02-03T16:02:23.427Z,10.93
2019-02-03T16:04:52.768Z,10.55
2019-02-03T16:07:28.336Z,10.80
2019-02-03T16:09:57.408Z,10.75
2019-02-03T16:12:26.825Z,10.48
2019-02-03T16:15:02.560Z,10.40
2019-02-03T16:17:31.999Z,10.32
2019-02-03T16:20:01.137Z,10.50
2019-02-03T16:22:37.296Z,10.30
2019-02-03T16:25:06.895Z,9.50
2019-02-03T16:27:36.128Z,9.60
2019-02-03T16:30:13.897Z,10.23
2019-02-03T16:32:50.107Z,10.08
2019-02-03T16:35:32.934Z,9.98
2019-02-03T16:38:02.339Z,10.00
2019-02-03T16:40:31.536Z,9.65
2019-02-03T16:43:07.803Z,10.23
2019-02-03T16:45:36.981Z,10.30
2019-02-03T16:48:07.684Z,10.05
2019-02-03T16:50:42.768Z,10.88
2019-02-03T16:53:11.692Z,10.63
2019-02-03T16:55:40.455Z,10.63
2019-02-03T16:58:16.526Z,10.75
2019-02-03T17:00:46.154Z,10.23
2019-02-03T17:03:15.118Z,10.23
2019-02-03T17:05:50.800Z,10.68
2019-02-03T17:08:19.610Z,10.35
2019-02-03T17:10:48.651Z,9.85
2019-02-03T17:13:24.055Z,10.25
2019-02-03T17:15:58.043Z,10.18
2019-02-03T17:18:27.217Z,10.18
2019-02-03T17:21:02.743Z,10.70
2019-02-03T17:23:31.699Z,10.53
2019-02-03T17:26:03.719Z,11.12
2019-02-03T17:28:38.975Z,10.43
2019-02-03T17:31:10.391Z,10.08
2019-02-03T17:33:52.526Z,10.10
2019-02-03T17:36:28.839Z,11.12
2019-02-03T17:39:04.870Z,10.55
2019-02-03T17:41:33.947Z,10.55
2019-02-03T17:44:12.376Z,10.55
2019-02-03T17:46:40.148Z,10.30
2019-02-03T17:49:08.894Z,10.82
2019-02-03T17:51:37.777Z,11.30
2019-02-03T17:54:13.355Z,10.10
2019-02-03T17:56:42.392Z,10.65
2019-02-03T17:59:11.254Z,10.60
2019-02-03T18:01:46.899Z,11.60
2019-02-03T18:04:17.798Z,10.50
2019-02-03T18:06:46.523Z,9.90
2019-02-03T18:09:21.807Z,10.63
2019-02-03T18:11:51.217Z,9.88
2019-02-03T18:14:24.468Z,9.88
2019-02-03T18:16:59.700Z,10.88
2019-02-03T18:19:28.322Z,10.23
2019-02-03T18:21:57.735Z,10.53
2019-02-03T18:24:33.932Z,10.20
2019-02-03T18:27:03.067Z,9.90
2019-02-03T18:29:32.375Z,9.83
2019-02-03T18:32:07.919Z,10.20
2019-02-03T18:34:43.419Z,10.00
2019-02-03T18:37:25.795Z,10.25
2019-02-03T18:39:55.039Z,9.68
2019-02-03T18:42:24.095Z,10.13
2019-02-03T18:45:00.397Z,9.55
2019-02-03T18:47:29.202Z,10.10
2019-02-03T18:49:59.051Z,10.08
2019-02-03T18:52:34.712Z,9.53
2019-02-03T18:55:04.235Z,10.68
2019-02-03T18:57:33.229Z,10.00
2019-02-03T19:00:08.943Z,9.90
2019-02-03T19:02:37.963Z,10.18
2019-02-03T19:05:10.247Z,10.82
2019-02-03T19:07:46.163Z,10.88
2019-02-03T19:10:17.402Z,9.78
2019-02-03T19:13:00.970Z,10.03
2019-02-03T19:15:31.269Z,9.65
2019-02-03T19:18:00.705Z,10.30
2019-02-03T19:20:38.018Z,10.63
2019-02-03T19:23:08.869Z,10.50
2019-02-03T19:25:38.928Z,10.18
2019-02-03T19:28:14.679Z,10.48
2019-02-03T19:30:43.543Z,10.60
2019-02-03T19:33:32.740Z,9.75
2019-02-03T19:36:01.487Z,9.90
2019-02-03T19:38:44.207Z,9.98
2019-02-03T19:41:13.245Z,9.93
2019-02-03T19:43:42.237Z,9.70
2019-02-03T19:46:18.011Z,10.20
2019-02-03T19:48:47.528Z,9.85
2019-02-03T19:51:16.337Z,9.80
2019-02-03T19:53:52.015Z,9.65
2019-02-03T19:56:21.059Z,9.88
2019-02-03T19:58:50.457Z,10.20
2019-02-03T20:01:26.007Z,9.43
2019-02-03T20:03:55.053Z,9.23
2019-02-03T20:06:23.910Z,9.35
2019-02-03T20:08:59.618Z,9.45
2019-02-03T20:11:29.046Z,8.73
2019-02-03T20:13:58.559Z,8.60
2019-02-03T20:16:34.601Z,8.90
2019-02-03T20:19:04.024Z,9.13
2019-02-03T20:21:33.050Z,8.85
2019-02-03T20:24:08.754Z,8.93
2019-02-03T20:26:38.512Z,8.53
2019-02-03T20:29:07.762Z,8.75
2019-02-03T20:31:43.265Z,9.25
2019-02-03T20:34:19.096Z,8.55
2019-02-03T20:37:01.955Z,8.10
2019-02-03T20:39:38.315Z,8.50
2019-02-03T20:42:13.794Z,7.87
2019-02-03T20:44:42.901Z,7.97
2019-02-03T20:47:15.340Z,8.38
2019-02-03T20:49:51.713Z,8.55
2019-02-03T20:52:20.923Z,8.00
2019-02-03T20:54:50.030Z,7.55
2019-02-03T20:57:25.588Z,7.70
2019-02-03T20:59:54.316Z,7.92
2019-02-03T21:02:23.456Z,8.10
2019-02-03T21:04:59.151Z,8.15
2019-02-03T21:07:28.372Z,7.25
2019-02-03T21:09:57.416Z,7.33
2019-02-03T21:12:32.808Z,7.72
2019-02-03T21:15:01.539Z,7.37
2019-02-03T21:17:30.511Z,7.05
2019-02-03T21:20:06.308Z,7.45
2019-02-03T21:22:35.593Z,7.30
2019-02-03T21:25:05.063Z,6.78
2019-02-03T21:27:40.643Z,6.92
2019-02-03T21:30:12.878Z,7.30
2019-02-03T21:32:41.971Z,6.77
2019-02-03T21:35:17.960Z,6.95
2019-02-03T21:37:54.401Z,6.53
2019-02-03T21:40:37.166Z,6.45
2019-02-03T21:43:07.942Z,6.80
2019-02-03T21:45:44.990Z,6.80
2019-02-03T21:48:35.350Z,6.72
2019-02-03T21:51:11.985Z,6.37
2019-02-03T21:53:47.688Z,6.50
2019-02-03T21:56:16.421Z,6.60
2019-02-03T21:58:45.160Z,6.30
2019-02-03T22:01:20.906Z,6.42
2019-02-03T22:03:50.303Z,6.10
2019-02-03T22:06:19.373Z,5.90
2019-02-03T22:08:54.633Z,6.03
2019-02-03T22:11:23.734Z,5.95
2019-02-03T22:13:53.732Z,6.42
2019-02-03T22:16:29.404Z,5.40
2019-02-03T22:18:58.174Z,6.15
2019-02-03T22:21:26.966Z,5.83
2019-02-03T22:24:02.193Z,6.17
2019-02-03T22:26:31.208Z,6.50
2019-02-03T22:29:01.894Z,6.08
2019-02-03T22:31:37.760Z,6.20
2019-02-03T22:34:06.520Z,5.85
2019-02-03T22:36:35.560Z,5.60
2019-02-03T22:39:15.865Z,5.83
2019-02-03T22:41:51.639Z,6.12
2019-02-03T22:44:27.391Z,6.17
2019-02-03T22:46:56.218Z,6.20
2019-02-03T22:49:37.897Z,5.72
2019-02-03T22:52:13.883Z,5.40
2019-02-03T22:54:49.771Z,6.10
2019-02-03T22:57:18.965Z,6.08
2019-02-03T22:59:48.552Z,5.85
2019-02-03T23:02:24.427Z,6.60
2019-02-03T23:04:53.447Z,5.60
2019-02-03T23:07:22.514Z,5.30
2019-02-03T23:09:58.658Z,6.28
2019-02-03T23:12:27.669Z,5.70
2019-02-03T23:14:57.647Z,5.65
2019-02-03T23:17:33.120Z,5.92
2019-02-03T23:20:01.871Z,5.60
2019-02-03T23:22:30.843Z,5.87
2019-02-03T23:25:07.408Z,5.58
2019-02-03T23:27:36.145Z,5.37
2019-02-03T23:30:08.977Z,5.87
2019-02-03T23:32:45.471Z,5.90
2019-02-03T23:35:24.917Z,6.53
2019-02-03T23:38:07.316Z,6.22
2019-02-03T23:40:36.143Z,6.10
2019-02-03T23:43:20.766Z,6.03
2019-02-03T23:45:51.908Z,6.78
2019-02-03T23:48:26.520Z,6.50
2019-02-03T23:51:02.447Z,6.12
2019-02-03T23:53:37.912Z,5.95
2019-02-03T23:56:13.816Z,6.20
2019-02-03T23:58:42.905Z,6.33
